Time;durP1;ratioP1;P1;durP2;ratioP2;P2;SDS_P1;SDS_P2;PMS_P1;PMS_P2;Temp;Humidity;BMP_temperature;BMP_pressure;BME280_temperature;BME280_humidity;BME280_pressure;Samples;Min_cycle;Max_cycle;Signal;HPM_P1;HPM_P2
2022/12/12 00:00:01;;;;;;;6.18;5.57;;;13.40;52.20;;;;;;5053888;28;20642;-66
2022/12/12 00:02:26;;;;;;;6.82;6.20;;;13.30;52.10;;;;;;5053389;28;20233;-67
2022/12/12 00:04:55;;;;;;;6.07;5.57;;;13.30;52.20;;;;;;5053726;28;20182;-67
2022/12/12 00:07:21;;;;;;;7.00;6.30;;;13.30;52.20;;;;;;5053180;28;20221;-68
2022/12/12 00:09:46;;;;;;;6.68;6.03;;;13.30;52.30;;;;;;5052958;28;20167;-68
2022/12/12 00:12:12;;;;;;;8.43;7.55;;;13.20;52.30;;;;;;5053541;28;20271;-67
2022/12/12 00:14:38;;;;;;;6.45;5.85;;;13.20;52.30;;;;;;5053628;28;20167;-66
2022/12/12 00:17:03;;;;;;;7.40;6.70;;;13.20;52.40;;;;;;5052793;28;20352;-66
2022/12/12 00:19:29;;;;;;;6.13;5.55;;;13.20;52.40;;;;;;5053728;28;20179;-67
2022/12/12 00:21:55;;;;;;;7.10;6.40;;;13.30;52.30;;;;;;5053373;28;20171;-67
2022/12/12 00:24:20;;;;;;;7.35;6.43;;;13.30;52.30;;;;;;5052817;28;20209;-68
2022/12/12 00:26:46;;;;;;;7.07;6.28;;;13.30;52.20;;;;;;5053249;28;20171;-67
2022/12/12 00:29:12;;;;;;;6.90;6.25;;;13.30;52.20;;;;;;5053762;28;20618;-68
2022/12/12 00:31:37;;;;;;;7.20;6.50;;;13.30;52.20;;;;;;5052593;28;20220;-67
2022/12/12 00:34:03;;;;;;;6.97;6.30;;;13.30;52.10;;;;;;5053467;28;20206;-67
2022/12/12 00:36:29;;;;;;;7.22;6.53;;;13.30;52.20;;;;;;5053321;28;20195;-67
2022/12/12 00:38:55;;;;;;;7.00;6.30;;;13.20;52.20;;;;;;5052292;28;20244;-66
2022/12/12 00:41:20;;;;;;;7.25;6.57;;;13.20;52.30;;;;;;5053187;28;20634;-67
2022/12/12 00:43:46;;;;;;;6.60;6.00;;;13.20;52.30;;;;;;5053073;28;20171;-67
2022/12/12 00:46:14;;;;;;;7.05;6.45;;;13.20;52.40;;;;;;5052665;28;20183;-68
2022/12/12 00:48:39;;;;;;;7.55;6.80;;;13.20;52.40;;;;;;5051839;28;20171;-68
2022/12/12 00:51:07;;;;;;;6.65;6.05;;;13.20;52.40;;;;;;5052360;28;20182;-68
2022/12/12 00:53:33;;;;;;;6.93;6.32;;;13.20;52.30;;;;;;5052925;28;20171;-68
2022/12/12 00:55:58;;;;;;;6.47;5.88;;;13.30;52.30;;;;;;5052949;28;20281;-67
2022/12/12 00:58:24;;;;;;;6.55;5.95;;;13.30;52.20;;;;;;5052467;28;20207;-67
2022/12/12 01:00:50;;;;;;;6.88;6.18;;;13.30;52.20;;;;;;5052941;28;20171;-67
2022/12/12 01:03:15;;;;;;;7.03;6.32;;;13.30;52.10;;;;;;5053155;28;20174;-67
2022/12/12 01:05:41;;;;;;;6.57;5.97;;;13.30;52.20;;;;;;5052020;28;20181;-68
2022/12/12 01:08:07;;;;;;;7.10;6.40;;;13.20;52.30;;;;;;5052934;28;20540;-67
2022/12/12 01:10:32;;;;;;;7.72;6.93;;;13.20;52.20;;;;;;5052613;28;20641;-67
2022/12/12 01:12:58;;;;;;;7.07;6.38;;;13.10;52.20;;;;;;5052006;28;20693;-66
2022/12/12 01:15:25;;;;;;;7.78;6.90;;;13.10;52.20;;;;;;5052905;28;20687;-67
2022/12/12 01:17:50;;;;;;;7.40;6.70;;;13.10;52.30;;;;;;5053529;28;20222;-66
2022/12/12 01:20:21;;;;;;;6.95;6.32;;;13.20;52.40;;;;;;5058623;28;20171;-67
2022/12/12 01:22:47;;;;;;;6.97;6.28;;;13.20;52.40;;;;;;5059269;28;20526;-67
2022/12/12 01:25:12;;;;;;;6.60;5.90;;;13.20;52.30;;;;;;5059513;28;20175;-68
2022/12/12 01:27:38;;;;;;;6.70;6.00;;;13.30;52.30;;;;;;5058462;28;20189;-68
2022/12/12 01:30:05;;;;;;;8.50;6.32;;;13.30;52.20;;;;;;5059412;28;20170;-68
2022/12/12 01:32:30;;;;;;;6.65;6.05;;;13.40;52.10;;;;;;5059374;28;20218;-67
2022/12/12 01:34:56;;;;;;;7.30;6.60;;;13.40;52.00;;;;;;5058677;28;20195;-69
2022/12/12 01:37:21;;;;;;;7.20;6.50;;;13.40;52.00;;;;;;5059365;28;20253;-69
2022/12/12 01:39:47;;;;;;;6.63;6.03;;;13.30;52.10;;;;;;5059093;28;20167;-70
2022/12/12 01:42:13;;;;;;;7.53;6.72;;;13.30;52.10;;;;;;5058750;28;20220;-70
2022/12/12 01:44:40;;;;;;;7.30;6.60;;;13.20;52.20;;;;;;5059106;28;20177;-70
2022/12/12 01:47:06;;;;;;;7.18;6.43;;;13.20;52.10;;;;;;5059284;28;20186;-70
2022/12/12 01:49:33;;;;;;;7.18;6.47;;;13.20;52.20;;;;;;5058340;28;20175;-71
2022/12/12 01:52:01;;;;;;;7.18;6.45;;;13.20;52.20;;;;;;5057971;28;20228;-70
2022/12/12 01:54:30;;;;;;;7.63;6.90;;;13.20;52.30;;;;;;5057128;28;20229;-71
2022/12/12 01:56:57;;;;;;;7.07;6.38;;;13.20;52.20;;;;;;5059050;28;20250;-70
2022/12/12 01:59:23;;;;;;;6.78;6.13;;;13.30;52.20;;;;;;5058153;28;20213;-70
2022/12/12 02:01:49;;;;;;;6.97;6.28;;;13.30;52.10;;;;;;5056927;28;20175;-69
2022/12/12 02:04:14;;;;;;;6.25;5.65;;;13.40;52.10;;;;;;5058971;28;20179;-70
2022/12/12 02:06:41;;;;;;;6.95;6.25;;;13.40;52.00;;;;;;5058650;28;20266;-69
2022/12/12 02:09:09;;;;;;;6.38;5.85;;;13.30;52.00;;;;;;5057354;28;20174;-70
2022/12/12 02:11:41;;;;;;;6.70;6.10;;;13.30;52.00;;;;;;5058491;28;20568;-69
2022/12/12 02:14:06;;;;;;;7.38;6.70;;;13.30;52.10;;;;;;5059160;28;20171;-69
2022/12/12 02:16:40;;;;;;;6.95;6.25;;;13.20;52.10;;;;;;5057987;28;20221;-69
2022/12/12 02:19:24;;;;;;;6.75;6.10;;;13.20;52.10;;;;;;5057888;28;20225;-69
2022/12/12 02:22:09;;;;;;;6.82;6.07;;;13.20;52.10;;;;;;5058819;28;20167;-69
2022/12/12 02:24:38;;;;;;;6.70;6.00;;;13.20;52.20;;;;;;5058186;28;20167;-70
2022/12/12 02:27:30;;;;;;;6.60;6.00;;;13.30;52.20;;;;;;5058980;28;20175;-70
2022/12/12 02:30:09;;;;;;;6.55;5.90;;;13.30;52.10;;;;;;5055001;28;20176;-70
2022/12/12 02:32:39;;;;;;;6.68;5.95;;;13.30;52.10;;;;;;5054391;28;20179;-70
2022/12/12 02:35:10;;;;;;;6.28;5.68;;;13.40;52.00;;;;;;5054373;28;20638;-69
2022/12/12 02:37:57;;;;;;;5.72;5.18;;;13.40;52.00;;;;;;5053513;28;20226;-69
2022/12/12 02:40:46;;;;;;;6.75;6.07;;;13.30;51.90;;;;;;5054759;28;20179;-69
2022/12/12 02:43:30;;;;;;;6.70;6.10;;;13.30;52.00;;;;;;5055703;28;20228;-69
2022/12/12 02:46:04;;;;;;;6.15;5.55;;;13.20;52.00;;;;;;5053597;28;20203;-70
2022/12/12 02:48:40;;;;;;;6.25;5.75;;;13.20;52.00;;;;;;5054130;28;20250;-70
2022/12/12 02:51:06;;;;;;;5.72;5.22;;;13.20;52.10;;;;;;5053626;28;20183;-70
2022/12/12 02:53:31;;;;;;;6.28;5.78;;;13.20;52.10;;;;;;5054004;28;20178;-70
2022/12/12 02:56:02;;;;;;;5.68;5.18;;;13.20;52.20;;;;;;5055145;28;20605;-69
2022/12/12 02:58:28;;;;;;;6.75;5.70;;;13.30;52.10;;;;;;5054595;28;20589;-69
2022/12/12 03:01:09;;;;;;;5.63;5.13;;;13.30;52.10;;;;;;5053769;28;20181;-69
2022/12/12 03:10:30;;;;;;;6.22;5.72;;;13.30;51.90;;;;;;5055268;28;20178;-70
2022/12/12 03:13:15;;;;;;;5.93;5.43;;;13.30;52.00;;;;;;5033129;28;20318;-68
2022/12/12 03:15:50;;;;;;;5.95;5.35;;;13.30;51.90;;;;;;5054454;28;20178;-69
2022/12/12 03:18:43;;;;;;;6.47;5.88;;;13.20;51.90;;;;;;5053573;28;20641;-69
2022/12/12 03:21:34;;;;;;;5.85;5.28;;;13.20;51.90;;;;;;5052905;28;20179;-69
2022/12/12 03:24:04;;;;;;;6.03;5.43;;;13.20;52.10;;;;;;5054868;28;20237;-70
2022/12/12 03:26:35;;;;;;;6.15;5.55;;;13.20;52.10;;;;;;5054247;28;20187;-70
2022/12/12 03:29:10;;;;;;;5.72;5.22;;;13.30;52.20;;;;;;5053592;28;20186;-70
2022/12/12 03:31:37;;;;;;;5.55;5.05;;;13.30;52.10;;;;;;5053186;28;20174;-70
2022/12/12 03:34:05;;;;;;;5.70;5.20;;;13.30;52.00;;;;;;5052939;28;20183;-69
2022/12/12 03:36:38;;;;;;;5.80;5.30;;;13.40;52.00;;;;;;5053108;28;20241;-69
2022/12/12 03:39:17;;;;;;;5.43;5.00;;;13.30;51.90;;;;;;5053493;28;20232;-69
2022/12/12 03:41:47;;;;;;;6.15;5.50;;;13.30;51.90;;;;;;5051291;28;20263;-69
2022/12/12 03:44:40;;;;;;;5.82;5.32;;;13.30;51.90;;;;;;5053160;28;20179;-70
2022/12/12 03:47:09;;;;;;;6.60;5.90;;;13.20;51.90;;;;;;5052368;28;20183;-70
2022/12/12 03:50:05;;;;;;;6.10;5.50;;;13.20;51.90;;;;;;5054006;28;20620;-71
2022/12/12 03:52:43;;;;;;;6.05;5.55;;;13.20;52.00;;;;;;5052692;28;20649;-70
2022/12/12 03:55:33;;;;;;;5.90;5.40;;;13.20;52.10;;;;;;5052207;28;20210;-70
2022/12/12 03:58:01;;;;;;;5.80;5.30;;;13.20;52.10;;;;;;5054244;28;20203;-69
2022/12/12 04:00:27;;;;;;;6.03;5.53;;;13.20;52.10;;;;;;5052932;28;20183;-69
2022/12/12 04:02:57;;;;;;;5.28;4.78;;;13.30;52.00;;;;;;5051802;28;20198;-69
2022/12/12 04:05:26;;;;;;;6.22;5.72;;;13.30;51.90;;;;;;5052699;28;20214;-70
2022/12/12 04:07:57;;;;;;;5.82;5.32;;;13.40;52.00;;;;;;5052329;28;20187;-70
2022/12/12 04:13:19;;;;;;;5.32;4.82;;;13.30;51.80;;;;;;5052698;28;20707;-69
2022/12/12 04:15:55;;;;;;;5.43;5.03;;;13.30;51.80;;;;;;5051562;28;20206;-66
2022/12/12 04:18:51;;;;;;;6.03;5.47;;;13.30;51.90;;;;;;5052439;28;20547;-67
2022/12/12 04:24:23;;;;;;;5.82;5.30;;;13.20;51.90;;;;;;5052843;28;20545;-68
2022/12/12 04:27:08;;;;;;;5.80;5.20;;;13.20;52.00;;;;;;5053722;28;20171;-67
2022/12/12 04:29:37;;;;;;;6.00;5.40;;;13.20;52.10;;;;;;5051401;28;20313;-68
2022/12/12 04:32:11;;;;;;;5.78;5.28;;;13.20;52.10;;;;;;5052219;28;20546;-67
2022/12/12 04:34:55;;;;;;;6.15;5.55;;;13.20;52.00;;;;;;5051782;28;20657;-67
2022/12/12 04:37:31;;;;;;;5.18;4.75;;;13.30;51.90;;;;;;5051655;28;20310;-67
2022/12/12 04:39:58;;;;;;;5.68;5.18;;;13.30;51.90;;;;;;5052279;28;20178;-67
2022/12/12 04:42:27;;;;;;;6.07;5.55;;;13.40;51.90;;;;;;5053238;28;20696;-67
2022/12/12 04:44:54;;;;;;;5.50;5.00;;;13.30;51.80;;;;;;5050961;28;20210;-68
2022/12/12 04:47:20;;;;;;;6.03;5.50;;;13.30;51.80;;;;;;5052005;28;20179;-67
2022/12/12 04:49:46;;;;;;;5.55;5.05;;;13.30;51.80;;;;;;5051868;28;20510;-68
2022/12/12 04:52:12;;;;;;;7.35;6.05;;;13.20;51.80;;;;;;5051116;28;20175;-68
2022/12/12 04:54:45;;;;;;;6.63;5.93;;;13.20;51.80;;;;;;5052512;28;20179;-67
2022/12/12 04:57:14;;;;;;;5.95;5.45;;;13.20;51.80;;;;;;5051767;28;20214;-67
2022/12/12 04:59:39;;;;;;;5.85;5.25;;;13.20;51.90;;;;;;5051286;28;20653;-67
2022/12/12 05:02:19;;;;;;;5.80;5.30;;;13.20;51.90;;;;;;5053046;28;20183;-67
2022/12/12 05:04:58;;;;;;;5.97;5.15;;;13.20;51.90;;;;;;5050886;28;20175;-67
2022/12/12 05:07:27;;;;;;;6.07;5.47;;;13.20;51.90;;;;;;5052026;28;20245;-67
2022/12/12 05:09:52;;;;;;;6.20;5.60;;;13.30;51.90;;;;;;5052644;28;20186;-66
2022/12/12 05:12:19;;;;;;;5.85;5.35;;;13.30;51.80;;;;;;5050583;28;20226;-66
2022/12/12 05:14:45;;;;;;;5.20;4.70;;;13.40;51.70;;;;;;5052650;28;20193;-66
2022/12/12 05:17:16;;;;;;;5.75;5.25;;;13.40;51.70;;;;;;5052648;28;20641;-66
2022/12/12 05:19:42;;;;;;;5.30;4.80;;;13.50;51.50;;;;;;5050634;28;20179;-66
2022/12/12 05:22:07;;;;;;;5.45;4.95;;;13.50;51.50;;;;;;5052747;28;20664;-66
2022/12/12 05:24:33;;;;;;;5.40;4.90;;;13.40;52.10;;;;;;5052761;28;20251;-67
2022/12/12 05:26:58;;;;;;;5.50;5.00;;;13.40;51.50;;;;;;5051979;28;20229;-66
2022/12/12 05:29:24;;;;;;;6.03;5.43;;;13.40;51.60;;;;;;5052920;28;20175;-67
2022/12/12 05:31:49;;;;;;;5.60;5.10;;;13.30;51.60;;;;;;5052257;28;20171;-66
2022/12/12 05:34:15;;;;;;;5.72;5.22;;;13.30;51.60;;;;;;5052075;28;20173;-66
2022/12/12 05:36:40;;;;;;;5.82;5.22;;;13.20;51.70;;;;;;5052261;28;20540;-66
2022/12/12 05:39:06;;;;;;;5.95;5.45;;;13.20;51.70;;;;;;5052555;28;20576;-68
2022/12/12 05:41:31;;;;;;;6.70;6.00;;;13.30;51.70;;;;;;5051543;28;20642;-69
2022/12/12 05:43:57;;;;;;;6.00;5.40;;;13.30;51.60;;;;;;5052468;28;20193;-67
2022/12/12 05:46:23;;;;;;;5.95;5.38;;;13.40;51.60;;;;;;5052535;28;20175;-67
2022/12/12 05:48:49;;;;;;;6.05;5.45;;;13.40;51.50;;;;;;5051659;28;20187;-67
2022/12/12 05:51:16;;;;;;;5.70;5.20;;;13.40;51.50;;;;;;5052491;28;20297;-67
2022/12/12 05:53:42;;;;;;;6.60;6.00;;;13.40;51.40;;;;;;5051527;28;20175;-67
2022/12/12 05:56:10;;;;;;;6.15;5.55;;;13.50;51.40;;;;;;5052169;28;20671;-67
2022/12/12 05:58:36;;;;;;;6.07;5.50;;;13.40;51.30;;;;;;5051426;28;20183;-67
2022/12/12 06:01:02;;;;;;;5.53;5.03;;;13.40;51.40;;;;;;5051855;28;20182;-66
2022/12/12 06:03:28;;;;;;;5.68;5.18;;;13.40;51.40;;;;;;5052942;28;20179;-67
2022/12/12 06:05:54;;;;;;;6.50;5.90;;;13.30;51.40;;;;;;5054102;28;20301;-67
2022/12/12 06:08:19;;;;;;;6.32;5.72;;;13.20;51.30;;;;;;5055553;28;20626;-69
2022/12/12 06:10:45;;;;;;;6.65;6.05;;;13.20;51.50;;;;;;5055628;28;20175;-69
2022/12/12 06:13:11;;;;;;;6.20;5.60;;;13.20;51.60;;;;;;5055796;28;20635;-67
2022/12/12 06:15:39;;;;;;;5.57;5.07;;;13.20;51.50;;;;;;5055043;28;20629;-67
2022/12/12 06:18:05;;;;;;;6.82;6.20;;;13.30;51.50;;;;;;5055797;28;20302;-67
2022/12/12 06:20:31;;;;;;;6.03;5.43;;;13.30;51.50;;;;;;5055781;28;20213;-67
2022/12/12 06:22:57;;;;;;;6.13;5.63;;;13.30;51.50;;;;;;5054999;28;20185;-67
2022/12/12 06:25:22;;;;;;;5.88;5.38;;;13.40;51.40;;;;;;5056019;28;20183;-68
2022/12/12 06:27:48;;;;;;;7.03;5.72;;;13.40;51.20;;;;;;5055556;28;20550;-67
2022/12/12 06:30:13;;;;;;;6.57;5.72;;;13.40;51.20;;;;;;5054986;28;20179;-68
2022/12/12 06:32:39;;;;;;;6.60;6.00;;;13.40;51.20;;;;;;5055328;28;20527;-66
2022/12/12 06:35:05;;;;;;;6.28;5.75;;;13.40;51.20;;;;;;5055516;28;20250;-66
2022/12/12 06:37:30;;;;;;;7.13;6.43;;;13.30;51.20;;;;;;5054836;28;20213;-67
2022/12/12 06:39:56;;;;;;;7.25;6.55;;;13.30;51.10;;;;;;5055232;28;20174;-67
2022/12/12 06:42:21;;;;;;;6.72;6.13;;;13.30;51.10;;;;;;5055508;28;20213;-67
2022/12/12 06:44:47;;;;;;;6.90;6.30;;;13.20;51.10;;;;;;5054612;28;20186;-67
2022/12/12 06:47:12;;;;;;;7.00;6.30;;;13.20;51.30;;;;;;5055429;28;20175;-67
2022/12/12 06:49:38;;;;;;;7.10;6.45;;;13.20;51.40;;;;;;5055173;28;20266;-68
2022/12/12 06:52:03;;;;;;;7.22;6.55;;;13.20;51.30;;;;;;5054450;28;20265;-70
2022/12/12 06:54:29;;;;;;;6.30;5.70;;;13.30;51.30;;;;;;5054880;28;20210;-67
2022/12/12 06:56:55;;;;;;;7.22;6.53;;;13.30;51.30;;;;;;5054188;28;20215;-67
2022/12/12 06:59:20;;;;;;;7.53;6.82;;;13.30;51.20;;;;;;5055121;28;20616;-67
2022/12/12 07:01:46;;;;;;;7.00;6.30;;;13.40;51.10;;;;;;5054588;28;20179;-67
2022/12/12 07:04:11;;;;;;;7.63;6.93;;;13.30;51.00;;;;;;5054311;28;20186;-67
2022/12/12 07:06:37;;;;;;;7.18;6.57;;;13.30;51.00;;;;;;5054442;28;20183;-68
2022/12/12 07:09:03;;;;;;;7.63;6.93;;;13.30;51.00;;;;;;5054980;28;20167;-67
2022/12/12 07:11:28;;;;;;;8.55;7.75;;;13.30;51.00;;;;;;5053989;28;20306;-67
2022/12/12 07:13:55;;;;;;;7.93;7.20;;;13.20;50.90;;;;;;5054763;28;20196;-67
2022/12/12 07:16:20;;;;;;;7.10;6.50;;;13.10;50.90;;;;;;5054469;28;20198;-67
2022/12/12 07:18:46;;;;;;;7.55;6.85;;;13.10;51.00;;;;;;5054414;28;20190;-66
2022/12/12 07:21:13;;;;;;;7.47;6.78;;;13.10;51.00;;;;;;5054551;28;20656;-67
2022/12/12 07:23:38;;;;;;;7.82;7.13;;;13.20;51.20;;;;;;5054207;28;20179;-68
2022/12/12 07:26:05;;;;;;;7.78;7.07;;;13.20;51.00;;;;;;5054102;28;20545;-68
2022/12/12 07:28:31;;;;;;;7.45;6.70;;;13.20;51.00;;;;;;5054596;28;20176;-68
2022/12/12 07:30:56;;;;;;;7.43;6.72;;;13.30;51.00;;;;;;5054910;28;20175;-67
2022/12/12 07:33:22;;;;;;;6.80;6.20;;;13.30;50.90;;;;;;5053648;28;20172;-67
2022/12/12 07:35:47;;;;;;;6.88;6.28;;;13.40;50.90;;;;;;5053893;28;20718;-67
2022/12/12 07:38:14;;;;;;;6.80;6.20;;;13.40;50.70;;;;;;5054226;28;20634;-67
2022/12/12 07:40:40;;;;;;;7.18;6.47;;;13.40;50.70;;;;;;5053601;28;20232;-67
2022/12/12 07:43:05;;;;;;;6.97;6.30;;;13.40;50.70;;;;;;5054878;28;20171;-67
2022/12/12 07:45:31;;;;;;;6.93;6.32;;;13.40;50.70;;;;;;5053855;28;20178;-67
2022/12/12 07:47:56;;;;;;;6.90;6.30;;;13.30;50.70;;;;;;5053165;28;20171;-68
2022/12/12 07:50:22;;;;;;;6.97;6.30;;;13.30;50.70;;;;;;5054636;28;20167;-68
2022/12/12 07:52:47;;;;;;;7.35;6.65;;;13.20;50.70;;;;;;5053790;28;20244;-67
2022/12/12 07:55:13;;;;;;;6.82;6.13;;;13.20;50.80;;;;;;5053676;28;20297;-68
2022/12/12 07:57:40;;;;;;;7.45;6.75;;;13.20;50.80;;;;;;5053879;28;20301;-67
2022/12/12 08:00:06;;;;;;;6.28;5.68;;;13.20;50.80;;;;;;5053806;28;20221;-67
2022/12/12 08:02:32;;;;;;;6.47;5.88;;;13.20;50.70;;;;;;5053640;28;20630;-67
2022/12/12 08:04:57;;;;;;;7.13;6.43;;;13.30;50.70;;;;;;5053766;28;20182;-67
2022/12/12 08:07:23;;;;;;;6.70;6.10;;;13.30;50.60;;;;;;5053315;28;20183;-68
2022/12/12 08:09:48;;;;;;;7.38;6.68;;;13.40;50.60;;;;;;5053708;28;20182;-67
2022/12/12 08:12:14;;;;;;;5.85;5.35;;;13.40;50.40;;;;;;5053810;28;20273;-67
2022/12/12 08:14:39;;;;;;;6.82;6.22;;;13.50;50.40;;;;;;5052862;28;20167;-66
2022/12/12 08:17:05;;;;;;;8.15;7.35;;;13.50;50.30;;;;;;5053617;28;20218;-66
2022/12/12 08:19:31;;;;;;;7.00;6.30;;;13.50;50.40;;;;;;5053388;28;20172;-67
2022/12/12 08:21:56;;;;;;;6.60;6.00;;;13.40;50.30;;;;;;5053158;28;20292;-67
2022/12/12 08:24:22;;;;;;;7.38;6.40;;;13.40;50.40;;;;;;5053801;28;20208;-68
2022/12/12 08:26:48;;;;;;;7.93;7.22;;;13.40;50.40;;;;;;5053365;28;20167;-68
2022/12/12 08:29:14;;;;;;;7.53;6.82;;;13.30;50.40;;;;;;5052236;28;20179;-67
2022/12/12 08:31:39;;;;;;;7.00;6.30;;;13.30;50.40;;;;;;5053320;28;20171;-68
2022/12/12 08:34:05;;;;;;;7.07;6.43;;;13.30;50.50;;;;;;5053324;28;20182;-66
2022/12/12 08:36:32;;;;;;;6.00;5.50;;;13.30;50.40;;;;;;5052185;28;20557;-67
2022/12/12 08:39:00;;;;;;;6.28;5.68;;;13.30;50.40;;;;;;5053856;28;20186;-67
2022/12/12 08:41:26;;;;;;;7.82;6.30;;;13.40;50.40;;;;;;5053383;28;20198;-67
2022/12/12 08:43:51;;;;;;;6.78;6.15;;;13.40;50.30;;;;;;5052238;28;20680;-67
2022/12/12 08:46:20;;;;;;;7.30;6.60;;;13.50;50.20;;;;;;5053214;28;20653;-68
2022/12/12 08:48:46;;;;;;;7.28;6.57;;;13.50;50.10;;;;;;5052860;28;20171;-68
2022/12/12 08:51:11;;;;;;;7.93;7.15;;;13.60;50.20;;;;;;5052558;28;20178;-68
2022/12/12 08:53:37;;;;;;;7.10;6.50;;;13.50;50.20;;;;;;5052926;28;20175;-68
2022/12/12 08:56:02;;;;;;;7.18;6.47;;;13.50;50.20;;;;;;5053147;28;20266;-68
2022/12/12 08:58:28;;;;;;;6.88;6.28;;;13.50;50.20;;;;;;5052469;28;20259;-67
2022/12/12 09:00:55;;;;;;;7.25;6.55;;;13.50;50.30;;;;;;5052774;28;20182;-67
2022/12/12 09:03:20;;;;;;;7.60;6.90;;;13.50;50.20;;;;;;5052873;28;20179;-68
2022/12/12 09:05:46;;;;;;;7.55;6.85;;;13.50;50.20;;;;;;5052032;28;20167;-67
2022/12/12 09:08:12;;;;;;;7.20;6.50;;;13.50;50.30;;;;;;5052767;28;20197;-68
2022/12/12 09:10:38;;;;;;;7.40;6.47;;;13.50;50.30;;;;;;5051803;28;20618;-68
2022/12/12 09:13:05;;;;;;;7.22;6.53;;;13.60;50.20;;;;;;5052802;28;20230;-67
2022/12/12 09:15:32;;;;;;;7.70;6.95;;;13.60;50.20;;;;;;5052504;28;20180;-67
2022/12/12 09:17:58;;;;;;;6.90;6.20;;;13.60;50.20;;;;;;5051935;28;20218;-67
2022/12/12 09:20:23;;;;;;;7.95;7.15;;;13.60;50.20;;;;;;5052899;28;20270;-67
2022/12/12 09:22:49;;;;;;;7.38;6.68;;;13.60;50.20;;;;;;5053098;28;20273;-67
2022/12/12 09:25:14;;;;;;;8.30;7.50;;;13.60;50.20;;;;;;5052153;28;20263;-68
2022/12/12 09:27:40;;;;;;;8.38;7.28;;;13.60;50.30;;;;;;5052441;28;20207;-69
2022/12/12 09:30:06;;;;;;;8.80;7.50;;;13.50;50.20;;;;;;5052630;28;20171;-68
2022/12/12 09:32:31;;;;;;;8.38;7.55;;;13.50;50.30;;;;;;5051663;28;20186;-67
2022/12/12 09:34:57;;;;;;;8.05;7.25;;;13.50;50.20;;;;;;5052862;28;20175;-67
2022/12/12 09:37:22;;;;;;;8.02;7.13;;;13.50;50.30;;;;;;5052752;28;20576;-67
2022/12/12 09:39:50;;;;;;;7.85;6.95;;;13.50;50.30;;;;;;5053753;28;20571;-67
2022/12/12 09:42:27;;;;;;;7.75;7.05;;;13.50;50.40;;;;;;5056517;28;20180;-68
2022/12/12 09:45:04;;;;;;;9.20;8.18;;;13.50;50.30;;;;;;5056378;28;20195;-68
2022/12/12 09:47:37;;;;;;;8.45;7.40;;;13.50;50.40;;;;;;5056097;28;20236;-69
2022/12/12 09:50:10;;;;;;;8.65;7.72;;;13.40;50.30;;;;;;5055335;28;20662;-67
2022/12/12 09:52:35;;;;;;;9.52;8.05;;;13.40;50.30;;;;;;5055258;28;20594;-68
2022/12/12 09:55:19;;;;;;;8.60;7.53;;;13.40;50.40;;;;;;5055907;28;20665;-68
2022/12/12 09:57:58;;;;;;;8.30;7.57;;;13.30;50.30;;;;;;5054808;28;20219;-67
2022/12/12 10:00:23;;;;;;;8.43;7.55;;;13.30;50.30;;;;;;5054592;28;20182;-67
2022/12/12 10:03:01;;;;;;;8.88;7.18;;;13.30;50.40;;;;;;5054979;28;20630;-67
2022/12/12 10:05:45;;;;;;;8.55;7.65;;;13.30;50.40;;;;;;5056436;28;20167;-67
2022/12/12 10:08:38;;;;;;;9.15;7.93;;;13.30;50.40;;;;;;5055711;28;20175;-67
2022/12/12 10:11:48;;;;;;;12.15;8.27;;;13.30;50.40;;;;;;5056309;28;20176;-67
2022/12/12 10:13:52;;;;;;;7.88;7.07;;;13.30;50.40;;;;;;5053939;28;20198;-66
2022/12/12 10:16:17;;;;;;;9.05;8.15;;;13.30;50.40;;;;;;5054733;28;20276;-67
2022/12/12 10:18:46;;;;;;;7.65;6.85;;;13.30;50.50;;;;;;5054703;28;20226;-67
2022/12/12 10:21:40;;;;;;;8.95;8.05;;;13.30;50.50;;;;;;5054200;28;20262;-67
2022/12/12 10:24:24;;;;;;;8.63;7.32;;;13.20;50.40;;;;;;5051063;28;20179;-68
2022/12/12 10:26:51;;;;;;;9.30;7.45;;;13.20;50.50;;;;;;5055657;28;20207;-67
2022/12/12 10:29:24;;;;;;;10.57;8.10;;;13.20;50.50;;;;;;5054108;28;20186;-68
2022/12/12 10:32:13;;;;;;;9.68;8.13;;;13.10;50.40;;;;;;5055779;28;20262;-67
2022/12/12 10:34:42;;;;;;;9.15;8.10;;;13.10;50.50;;;;;;5054232;28;20182;-66
2022/12/12 10:37:39;;;;;;;8.32;7.43;;;13.10;50.40;;;;;;5053733;28;20207;-67
2022/12/12 10:40:29;;;;;;;8.73;7.82;;;13.10;50.40;;;;;;5054524;28;20270;-67
2022/12/12 10:43:10;;;;;;;9.80;8.32;;;13.10;50.40;;;;;;5054584;28;20680;-67
2022/12/12 10:45:50;;;;;;;8.98;7.68;;;13.10;50.40;;;;;;5055058;28;20672;-67
2022/12/12 10:48:15;;;;;;;10.23;8.48;;;13.10;50.40;;;;;;5055345;28;20612;-67
2022/12/12 10:50:51;;;;;;;7.68;6.78;;;13.10;50.40;;;;;;5052397;28;20242;-67
2022/12/12 10:53:17;;;;;;;9.43;7.63;;;13.10;50.30;;;;;;5055354;28;20175;-67
2022/12/12 10:55:50;;;;;;;9.75;8.15;;;13.10;50.40;;;;;;5054055;28;20197;-67
2022/12/12 10:58:16;;;;;;;9.52;8.25;;;13.00;50.40;;;;;;5053163;28;20297;-67
2022/12/12 11:00:42;;;;;;;9.23;8.23;;;13.00;50.40;;;;;;5055094;28;20229;-67
2022/12/12 11:03:25;;;;;;;10.38;8.85;;;13.00;50.40;;;;;;5054610;28;20262;-67
2022/12/12 11:05:51;;;;;;;8.70;7.80;;;13.00;50.50;;;;;;5053665;28;20514;-67
2022/12/12 11:08:21;;;;;;;8.52;7.72;;;13.00;50.40;;;;;;5053741;28;20240;-67
2022/12/12 11:10:58;;;;;;;9.02;7.85;;;13.10;50.50;;;;;;5054138;28;20180;-67
2022/12/12 11:13:24;;;;;;;8.82;7.93;;;13.10;50.60;;;;;;5054643;28;20238;-67
2022/12/12 11:15:51;;;;;;;9.40;7.68;;;13.10;50.40;;;;;;5054829;28;20225;-66
2022/12/12 11:18:18;;;;;;;8.82;7.90;;;13.10;50.40;;;;;;5053977;28;20624;-66
2022/12/12 11:21:08;;;;;;;8.80;7.90;;;13.10;50.40;;;;;;5054536;28;20263;-67
2022/12/12 11:23:35;;;;;;;8.52;7.63;;;13.20;50.40;;;;;;5054730;28;20191;-67
2022/12/12 11:26:10;;;;;;;9.25;8.23;;;13.20;50.30;;;;;;5053964;28;20611;-67
2022/12/12 11:28:36;;;;;;;9.05;8.18;;;13.20;50.40;;;;;;5053317;28;20171;-68
2022/12/12 11:31:03;;;;;;;9.07;8.18;;;13.10;50.30;;;;;;5053628;28;20258;-68
2022/12/12 11:33:59;;;;;;;9.93;8.70;;;13.10;50.30;;;;;;5052888;28;20684;-67
2022/12/12 11:36:37;;;;;;;8.80;7.38;;;13.10;50.30;;;;;;5052142;28;20301;-66
2022/12/12 11:39:31;;;;;;;9.20;8.25;;;13.10;50.30;;;;;;5054008;28;20182;-67
2022/12/12 11:42:03;;;;;;;8.00;7.10;;;13.10;50.30;;;;;;5053286;28;20589;-68
2022/12/12 11:44:36;;;;;;;9.55;7.75;;;13.10;50.40;;;;;;5054572;28;20261;-67
2022/12/12 11:47:18;;;;;;;9.15;8.13;;;13.20;50.40;;;;;;5052566;28;20177;-68
2022/12/12 11:49:45;;;;;;;8.77;7.88;;;13.20;50.20;;;;;;5052851;28;20629;-68
2022/12/12 11:52:26;;;;;;;9.07;7.55;;;13.20;50.20;;;;;;5053907;28;20171;-68
2022/12/12 11:54:52;;;;;;;8.75;7.38;;;13.20;50.30;;;;;;5053992;28;20221;-67
2022/12/12 11:57:25;;;;;;;8.68;7.22;;;13.20;50.30;;;;;;5052974;28;20289;-67
2022/12/12 12:00:00;;;;;;;9.25;8.00;;;13.20;50.30;;;;;;5052029;28;20577;-67
2022/12/12 12:02:28;;;;;;;9.07;8.15;;;13.20;50.30;;;;;;5052010;28;20201;-67
2022/12/12 12:05:19;;;;;;;8.52;7.55;;;13.10;50.30;;;;;;5053767;28;20178;-67
2022/12/12 12:08:13;;;;;;;8.43;7.50;;;13.10;50.30;;;;;;5052930;28;20537;-68
2022/12/12 12:10:50;;;;;;;10.23;7.90;;;13.10;50.30;;;;;;5052466;28;20182;-67
2022/12/12 12:13:54;;;;;;;8.75;7.70;;;13.10;50.30;;;;;;5053502;28;20219;-67
2022/12/12 12:16:45;;;;;;;9.10;7.70;;;13.20;50.30;;;;;;5053251;28;20203;-67
2022/12/12 12:19:34;;;;;;;9.52;7.68;;;13.20;50.30;;;;;;5052552;28;20182;-67
2022/12/12 12:22:20;;;;;;;8.10;7.30;;;13.20;50.30;;;;;;5051784;28;20171;-67
2022/12/12 12:25:36;;;;;;;8.50;7.35;;;13.20;50.30;;;;;;5053216;28;20179;-68
2022/12/12 12:28:26;;;;;;;7.90;6.78;;;13.20;50.50;;;;;;5043612;28;20206;-68
2022/12/12 12:31:28;;;;;;;8.38;7.50;;;13.20;50.50;;;;;;5053223;28;20581;-67
2022/12/12 12:34:27;;;;;;;7.32;6.55;;;13.20;50.50;;;;;;5053076;28;20170;-66
2022/12/12 12:37:18;;;;;;;9.68;8.00;;;13.10;50.50;;;;;;5053120;28;20290;-67
2022/12/12 12:40:20;;;;;;;7.97;7.18;;;13.10;50.50;;;;;;5051921;28;20178;-68
2022/12/12 12:43:00;;;;;;;7.70;6.90;;;13.20;50.50;;;;;;5051468;28;20265;-68
2022/12/12 12:45:49;;;;;;;8.35;7.03;;;13.20;50.60;;;;;;5053478;28;20203;-69
2022/12/12 12:48:19;;;;;;;8.73;7.05;;;13.20;50.60;;;;;;5051967;28;20179;-68
2022/12/12 12:51:10;;;;;;;8.18;7.00;;;13.20;50.50;;;;;;5052369;28;20180;-68
2022/12/12 12:54:03;;;;;;;7.22;6.53;;;13.20;50.50;;;;;;5052765;28;20636;-68
2022/12/12 12:56:34;;;;;;;7.72;6.93;;;13.30;50.60;;;;;;5051350;28;20237;-68
2022/12/12 12:59:05;;;;;;;7.72;6.80;;;13.20;50.50;;;;;;5051915;28;20270;-68
2022/12/12 13:01:41;;;;;;;7.28;6.28;;;13.30;50.50;;;;;;5051624;28;20269;-68
2022/12/12 13:04:09;;;;;;;7.40;6.05;;;13.20;50.50;;;;;;5052384;28;20187;-68
2022/12/12 13:06:40;;;;;;;8.43;6.60;;;13.30;50.50;;;;;;5052681;28;20175;-68
2022/12/12 13:09:31;;;;;;;6.90;6.20;;;13.30;50.50;;;;;;5053040;28;20229;-68
2022/12/12 13:12:00;;;;;;;8.60;6.65;;;13.30;50.50;;;;;;5051100;28;20225;-67
2022/12/12 13:14:45;;;;;;;7.90;7.10;;;13.30;50.50;;;;;;5051407;28;20201;-67
2022/12/12 13:17:23;;;;;;;7.18;6.38;;;13.30;50.50;;;;;;5051072;28;20210;-67